createdAt,value
2018-05-18T00:00:23.406Z,32.29
2018-05-18T00:01:14.610Z,31.34
2018-05-18T00:02:14.862Z,30.58
2018-05-18T00:03:14.923Z,31.34
2018-05-18T00:04:15.111Z,28.86
2018-05-18T00:05:15.242Z,29.52
2018-05-18T00:06:15.442Z,29.72
2018-05-18T00:07:15.648Z,28.47
2018-05-18T00:08:15.833Z,30.56
2018-05-18T00:09:16.040Z,30.58
2018-05-18T00:10:16.206Z,29.33
2018-05-18T00:11:16.372Z,31.05
2018-05-18T00:12:16.557Z,31.24
2018-05-18T00:13:16.724Z,32.97
2018-05-18T00:14:24.831Z,33.83
2018-05-18T00:15:17.246Z,35.16
2018-05-18T00:16:17.373Z,34.59
2018-05-18T00:17:17.507Z,34.78
2018-05-18T00:18:17.577Z,35.55
2018-05-18T00:19:17.807Z,34.59
2018-05-18T00:20:17.876Z,33.73
2018-05-18T00:21:18.051Z,33.15
2018-05-18T00:22:18.213Z,33.92
2018-05-18T00:23:18.383Z,33.64
2018-05-18T00:24:18.537Z,32.01
2018-05-18T00:26:50.809Z,35.16
2018-05-18T00:27:50.970Z,34.01
2018-05-18T00:28:51.129Z,34.11
2018-05-18T00:29:51.296Z,35.45
2018-05-18T00:30:51.470Z,36.12
2018-05-18T00:31:51.625Z,36.41
2018-05-18T00:32:51.790Z,37.46
2018-05-18T00:33:51.965Z,36.60
2018-05-18T00:34:59.302Z,36.98
2018-05-18T00:35:52.339Z,36.50
2018-05-18T00:36:52.514Z,35.26
2018-05-18T00:37:53.359Z,35.16
2018-05-18T00:39:00.720Z,36.21
2018-05-18T00:39:52.913Z,32.68
2018-05-18T00:40:53.100Z,30.67
2018-05-18T00:41:53.261Z,31.24
2018-05-18T00:42:53.428Z,30.19
2018-05-18T00:43:53.598Z,32.87
2018-05-18T00:44:53.753Z,29.91
2018-05-18T00:45:53.944Z,31.72
2018-05-18T00:46:54.125Z,31.24
2018-05-18T00:47:54.261Z,30.67
2018-05-18T00:48:54.429Z,29.52
2018-05-18T00:51:37.990Z,27.41
2018-05-18T00:52:38.160Z,29.33
2018-05-18T00:53:38.333Z,27.42
2018-05-18T00:54:38.492Z,28.84
2018-05-18T00:55:38.667Z,29.33
2018-05-18T00:56:38.831Z,29.81
2018-05-18T00:57:38.981Z,27.33
2018-05-18T00:58:46.323Z,27.22
2018-05-18T00:59:39.351Z,28.38
2018-05-18T01:00:39.518Z,29.81
2018-05-18T01:01:39.692Z,30.86
2018-05-18T01:02:39.837Z,32.68
2018-05-18T01:03:40.011Z,32.49
2018-05-18T01:04:40.163Z,31.90
2018-05-18T01:05:40.335Z,30.29
2018-05-18T01:08:12.383Z,28.46
2018-05-18T01:09:12.569Z,25.02
2018-05-18T01:10:12.730Z,25.59
2018-05-18T01:11:12.896Z,21.30
2018-05-18T01:12:13.063Z,23.11
2018-05-18T01:13:13.212Z,23.11
2018-05-18T01:14:13.377Z,23.59
2018-05-18T01:15:13.546Z,23.78
2018-05-18T01:16:13.707Z,23.97
2018-05-18T01:17:13.864Z,23.11
2018-05-18T01:18:14.038Z,24.07
2018-05-18T01:19:14.188Z,23.78
2018-05-18T01:20:14.504Z,24.83
2018-05-18T01:21:22.502Z,25.50
2018-05-18T01:22:14.656Z,26.93
2018-05-18T01:23:14.823Z,26.74
2018-05-18T01:24:14.992Z,27.89
2018-05-18T01:25:15.217Z,29.80
2018-05-18T01:26:22.461Z,30.94
2018-05-18T01:27:15.502Z,31.23
2018-05-18T01:28:15.669Z,31.99
2018-05-18T01:29:15.856Z,31.51
2018-05-18T01:30:23.233Z,32.66
2018-05-18T01:31:16.164Z,33.23
2018-05-18T01:32:16.336Z,33.42
2018-05-18T01:33:16.497Z,32.37
2018-05-18T01:34:16.656Z,32.28
2018-05-18T01:35:16.840Z,31.80
2018-05-18T01:36:17.007Z,31.23
2018-05-18T01:37:17.162Z,33.42
2018-05-18T01:38:17.321Z,33.81
2018-05-18T01:39:17.478Z,32.95
2018-05-18T01:40:17.642Z,33.91
2018-05-18T01:41:19.681Z,35.14
2018-05-18T01:42:17.962Z,36.29
2018-05-18T01:43:18.182Z,35.91
2018-05-18T01:44:18.235Z,35.91
2018-05-18T01:47:56.720Z,32.57
2018-05-18T01:48:56.892Z,31.51
2018-05-18T01:49:57.054Z,31.90
2018-05-18T01:51:05.165Z,32.09
2018-05-18T01:51:57.349Z,33.04
2018-05-18T01:52:57.508Z,33.04
2018-05-18T01:53:57.675Z,33.62
2018-05-18T01:54:57.840Z,31.88
2018-05-18T01:55:58.002Z,31.42
2018-05-18T01:56:58.166Z,32.36
2018-05-18T01:57:58.327Z,31.98
2018-05-18T01:58:58.493Z,31.21
2018-05-18T01:59:58.660Z,30.07
2018-05-18T02:00:59.575Z,31.31
2018-05-18T02:01:58.990Z,31.21
2018-05-18T02:02:59.152Z,31.21
2018-05-18T02:03:59.325Z,29.97
2018-05-18T02:04:59.474Z,27.78
2018-05-18T02:05:59.659Z,26.25
2018-05-18T02:08:45.927Z,29.59
2018-05-18T02:09:53.267Z,31.02
2018-05-18T02:10:46.297Z,30.55
2018-05-18T02:11:46.464Z,28.35
2018-05-18T02:12:54.285Z,28.92
2018-05-18T02:13:46.819Z,28.25
2018-05-18T02:14:46.985Z,28.44
2018-05-18T02:15:47.145Z,28.25
2018-05-18T02:16:47.305Z,29.03
2018-05-18T02:17:47.485Z,31.04
2018-05-18T02:18:47.649Z,31.12
2018-05-18T02:19:47.849Z,31.71
2018-05-18T02:20:48.010Z,30.08
2018-05-18T02:21:48.173Z,30.64
2018-05-18T02:22:48.350Z,30.07
2018-05-18T02:23:48.498Z,31.31
2018-05-18T02:24:48.694Z,30.35
2018-05-18T02:25:48.896Z,31.13
2018-05-18T02:26:49.066Z,32.86
2018-05-18T02:29:31.328Z,33.62
2018-05-18T02:30:31.492Z,32.57
2018-05-18T02:31:31.654Z,31.99
2018-05-18T02:32:40.883Z,31.42
2018-05-18T02:33:32.032Z,31.13
2018-05-18T02:34:32.200Z,31.23
2018-05-18T02:35:32.363Z,32.18
2018-05-18T02:36:39.704Z,32.86
2018-05-18T02:37:32.735Z,32.18
2018-05-18T02:38:32.889Z,33.33
2018-05-18T02:39:33.070Z,32.86
2018-05-18T02:40:33.231Z,32.57
2018-05-18T02:41:33.411Z,32.76
2018-05-18T02:42:33.575Z,32.86
2018-05-18T02:43:33.739Z,30.94
2018-05-18T02:44:33.904Z,29.51
2018-05-18T02:45:34.072Z,27.50
2018-05-18T02:46:34.227Z,28.36
2018-05-18T02:49:16.504Z,29.32
2018-05-18T02:50:16.672Z,29.99
2018-05-18T02:51:16.836Z,29.41
2018-05-18T02:52:17.056Z,29.51
2018-05-18T02:53:17.160Z,28.65
2018-05-18T02:54:17.323Z,27.70
2018-05-18T02:55:24.690Z,25.69
2018-05-18T02:56:17.601Z,24.73
2018-05-18T02:57:17.760Z,26.93
2018-05-18T02:58:18.001Z,27.79
2018-05-18T02:59:18.104Z,26.07
2018-05-18T03:00:25.406Z,26.74
2018-05-18T03:01:18.435Z,26.84
2018-05-18T03:02:18.601Z,27.12
2018-05-18T03:03:18.773Z,27.70
2018-05-18T03:04:18.929Z,28.55
2018-05-18T03:05:19.092Z,30.75
2018-05-18T03:06:19.259Z,31.13
2018-05-18T03:07:19.424Z,31.90
2018-05-18T03:08:19.597Z,32.28
2018-05-18T03:09:20.572Z,33.23
2018-05-18T03:10:19.861Z,35.53
2018-05-18T03:11:20.024Z,37.53
2018-05-18T03:12:20.213Z,37.63
2018-05-18T03:13:20.353Z,34.17
2018-05-18T03:14:20.518Z,32.86
2018-05-18T03:15:28.637Z,32.76
2018-05-18T03:16:20.793Z,34.67
2018-05-18T03:17:20.953Z,35.03
2018-05-18T03:18:21.121Z,31.02
2018-05-18T03:19:21.278Z,26.73
2018-05-18T03:20:21.438Z,23.47
2018-05-18T03:21:21.628Z,21.86
2018-05-18T03:22:21.791Z,26.25
2018-05-18T03:23:21.969Z,29.40
2018-05-18T03:24:22.148Z,27.59
2018-05-18T03:25:22.343Z,29.11
2018-05-18T03:26:22.520Z,28.83
2018-05-18T03:27:22.684Z,27.87
2018-05-18T03:28:22.853Z,25.57
2018-05-18T03:29:30.960Z,26.24
2018-05-18T03:30:23.123Z,26.25
2018-05-18T03:31:23.281Z,28.06
2018-05-18T03:32:23.450Z,28.83
2018-05-18T03:33:23.612Z,28.64
2018-05-18T03:34:23.773Z,29.40
2018-05-18T03:35:23.940Z,29.11
2018-05-18T03:36:31.490Z,29.40
2018-05-18T03:37:24.257Z,31.79
2018-05-18T03:38:24.477Z,32.84
2018-05-18T03:39:24.655Z,29.89
2018-05-18T03:40:24.812Z,32.28
2018-05-18T03:41:24.996Z,31.04
2018-05-18T03:42:25.154Z,31.90
2018-05-18T03:43:25.346Z,32.47
2018-05-18T03:44:25.589Z,34.00
2018-05-18T03:45:25.686Z,33.91
2018-05-18T03:46:25.869Z,34.00
2018-05-18T03:47:26.062Z,32.57
2018-05-18T03:48:26.227Z,29.61
2018-05-18T03:49:26.482Z,31.13
2018-05-18T03:50:26.605Z,30.18
2018-05-18T03:52:59.247Z,29.70
2018-05-18T03:53:59.411Z,29.32
2018-05-18T03:54:59.561Z,27.12
2018-05-18T03:55:59.739Z,26.45
2018-05-18T03:56:59.894Z,26.44
2018-05-18T03:58:00.061Z,28.17
2018-05-18T03:59:00.220Z,26.35
2018-05-18T04:00:00.399Z,25.21
2018-05-18T04:01:00.561Z,25.59
2018-05-18T04:02:00.725Z,27.22
2018-05-18T04:03:00.908Z,28.84
2018-05-18T04:04:01.066Z,24.16
2018-05-18T04:05:01.222Z,27.70
2018-05-18T04:06:01.402Z,27.12
2018-05-18T04:07:01.560Z,26.84
2018-05-18T04:09:44.151Z,30.18
2018-05-18T04:10:44.308Z,31.32
2018-05-18T04:11:44.457Z,30.27
2018-05-18T04:12:44.670Z,31.23
2018-05-18T04:13:44.831Z,30.94
2018-05-18T04:14:45.003Z,28.27
2018-05-18T04:15:45.183Z,29.61
2018-05-18T04:16:45.332Z,31.04
2018-05-18T04:17:45.516Z,32.28
2018-05-18T04:18:45.682Z,32.86
2018-05-18T04:19:45.865Z,34.57
2018-05-18T04:20:54.925Z,32.95
2018-05-18T04:21:46.299Z,32.86
2018-05-18T04:22:46.300Z,32.95
2018-05-18T04:23:46.511Z,33.04
2018-05-18T04:24:46.708Z,32.57
2018-05-18T04:25:46.881Z,29.70
2018-05-18T04:26:55.111Z,34.28
2018-05-18T04:27:47.142Z,33.04
2018-05-18T04:28:47.306Z,33.91
2018-05-18T04:29:47.483Z,32.95
2018-05-18T04:30:47.619Z,30.08
2018-05-18T04:31:47.802Z,30.35
2018-05-18T04:32:47.965Z,31.80
2018-05-18T04:33:48.146Z,32.95
2018-05-18T04:34:48.295Z,33.71
2018-05-18T04:35:48.469Z,35.43
2018-05-18T04:36:48.630Z,35.14
2018-05-18T04:37:48.791Z,34.67
2018-05-18T04:38:48.961Z,35.91
2018-05-18T04:39:49.119Z,36.39
2018-05-18T04:40:49.290Z,37.05
2018-05-18T04:41:49.452Z,36.58
2018-05-18T04:44:31.710Z,38.01
2018-05-18T04:45:31.876Z,37.34
2018-05-18T04:46:32.042Z,38.39
2018-05-18T04:47:32.207Z,39.15
2018-05-18T04:48:32.373Z,40.01
2018-05-18T04:49:32.535Z,39.83
2018-05-18T04:50:32.756Z,40.20
2018-05-18T04:51:32.869Z,41.45
2018-05-18T04:52:33.037Z,40.30
2018-05-18T04:53:40.391Z,40.30
2018-05-18T04:54:33.458Z,38.96
2018-05-18T04:55:33.513Z,38.30
2018-05-18T04:56:33.702Z,37.92
2018-05-18T04:57:43.041Z,39.73
2018-05-18T04:58:34.047Z,40.11
2018-05-18T04:59:34.336Z,40.49
2018-05-18T05:00:35.347Z,37.53
2018-05-18T05:01:34.493Z,38.68
2018-05-18T05:02:34.657Z,38.96
2018-05-18T05:03:34.974Z,38.78
2018-05-18T05:04:35.041Z,38.87
2018-05-18T05:05:35.289Z,38.68
2018-05-18T05:06:35.405Z,39.73
2018-05-18T05:07:36.310Z,39.83
2018-05-18T05:08:35.744Z,38.68
2018-05-18T05:09:35.957Z,38.20
2018-05-18T05:10:36.128Z,40.01
2018-05-18T05:11:36.287Z,39.25
2018-05-18T05:14:08.879Z,36.19
2018-05-18T05:15:09.001Z,36.19
2018-05-18T05:16:09.184Z,37.53
2018-05-18T05:18:19.504Z,37.82
2018-05-18T05:19:17.004Z,37.73
2018-05-18T05:20:18.261Z,38.20
2018-05-18T05:21:10.230Z,39.25
2018-05-18T05:22:10.229Z,37.82
2018-05-18T05:23:10.413Z,36.48
2018-05-18T05:24:10.575Z,36.87
2018-05-18T05:25:10.836Z,37.34
2018-05-18T05:26:10.947Z,37.73
2018-05-18T05:27:11.112Z,37.92
2018-05-18T05:28:11.309Z,38.30
2018-05-18T05:29:11.469Z,35.82
2018-05-18T05:30:11.631Z,35.72
2018-05-18T05:31:11.791Z,34.57
2018-05-18T05:32:11.954Z,33.62
2018-05-18T05:33:12.117Z,35.43
2018-05-18T05:34:12.319Z,34.86
2018-05-18T05:36:44.608Z,36.19
2018-05-18T05:37:44.762Z,36.10
2018-05-18T05:38:44.920Z,35.82
2018-05-18T05:39:45.091Z,35.05
2018-05-18T05:40:45.253Z,34.48
2018-05-18T05:41:45.441Z,33.91
2018-05-18T05:42:45.587Z,34.67
2018-05-18T05:43:46.618Z,32.95
2018-05-18T05:44:45.894Z,33.33
2018-05-18T05:45:46.119Z,33.71
2018-05-18T05:48:28.353Z,28.65
2018-05-18T05:49:28.515Z,32.57
2018-05-18T05:50:28.676Z,31.99
2018-05-18T05:51:28.851Z,31.21
2018-05-18T05:52:29.017Z,31.02
2018-05-18T05:53:29.192Z,30.83
2018-05-18T05:54:29.347Z,30.45
2018-05-18T05:55:29.499Z,29.59
2018-05-18T05:56:29.695Z,28.83
2018-05-18T05:57:29.909Z,29.49
2018-05-18T05:58:30.125Z,30.26
2018-05-18T05:59:30.288Z,28.65
2018-05-18T06:00:30.490Z,29.41
2018-05-18T06:01:30.671Z,29.78
2018-05-18T06:02:30.902Z,30.93
2018-05-18T06:05:03.350Z,29.70
2018-05-18T06:06:03.489Z,30.56
2018-05-18T06:07:03.660Z,31.32
2018-05-18T06:08:04.563Z,33.62
2018-05-18T06:09:03.976Z,31.98
2018-05-18T06:10:04.140Z,29.21
2018-05-18T06:11:04.309Z,34.00
2018-05-18T06:12:04.549Z,33.91
2018-05-18T06:13:04.660Z,33.62
2018-05-18T06:14:04.974Z,34.17
2018-05-18T06:15:12.940Z,31.90
2018-05-18T06:16:05.138Z,31.90
2018-05-18T06:17:05.270Z,32.66
2018-05-18T06:18:05.459Z,34.38
2018-05-18T06:19:05.613Z,34.57
2018-05-18T06:20:13.756Z,33.91
2018-05-18T06:21:05.929Z,35.33
2018-05-18T06:22:06.112Z,31.90
2018-05-18T06:23:06.276Z,32.28
2018-05-18T06:24:06.435Z,32.76
2018-05-18T06:25:06.642Z,32.76
2018-05-18T06:26:14.271Z,32.57
2018-05-18T06:27:06.948Z,34.55
2018-05-18T06:28:07.110Z,34.19
2018-05-18T06:29:07.278Z,33.70
2018-05-18T06:30:07.444Z,32.57
2018-05-18T06:31:07.610Z,34.95
2018-05-18T06:32:07.767Z,34.19
2018-05-18T06:33:07.933Z,33.81
2018-05-18T06:34:08.101Z,33.04
2018-05-18T06:35:08.293Z,32.57
2018-05-18T06:36:09.075Z,34.95
2018-05-18T06:37:08.632Z,33.91
2018-05-18T06:38:08.805Z,33.04
2018-05-18T06:39:08.959Z,32.66
2018-05-18T06:40:09.120Z,35.82
2018-05-18T06:42:51.401Z,38.39
2018-05-18T06:43:51.572Z,34.48
2018-05-18T06:44:55.406Z,35.72
2018-05-18T06:45:51.949Z,38.10
2018-05-18T06:46:52.119Z,37.53
2018-05-18T06:47:52.277Z,39.15
2018-05-18T06:48:52.439Z,42.40
2018-05-18T06:49:52.605Z,40.78
2018-05-18T06:50:52.773Z,39.64
2018-05-18T06:51:52.934Z,38.39
2018-05-18T06:52:53.099Z,36.10
2018-05-18T06:53:53.290Z,39.64
2018-05-18T06:54:53.451Z,39.44
2018-05-18T06:55:53.616Z,39.25
2018-05-18T06:56:53.824Z,38.96
2018-05-18T06:59:36.070Z,39.64
2018-05-18T07:00:36.236Z,39.64
2018-05-18T07:01:36.399Z,40.11
2018-05-18T07:02:36.564Z,42.79
2018-05-18T07:03:36.725Z,41.83
2018-05-18T07:04:36.922Z,40.11
2018-05-18T07:05:37.089Z,39.92
2018-05-18T07:06:37.236Z,41.93
2018-05-18T07:07:37.404Z,42.88
2018-05-18T07:08:37.584Z,42.79
2018-05-18T07:09:37.753Z,40.59
2018-05-18T07:10:37.984Z,40.01
2018-05-18T07:11:38.110Z,43.26
2018-05-18T07:12:38.276Z,42.40
2018-05-18T07:13:38.468Z,41.16
2018-05-18T07:20:29.119Z,39.64
2018-05-18T07:21:29.286Z,40.59
2018-05-18T07:22:29.450Z,46.80
2018-05-18T07:23:29.617Z,45.08
2018-05-18T07:24:29.849Z,46.99
2018-05-18T07:25:31.633Z,44.60
2018-05-18T07:26:30.190Z,46.32
2018-05-18T07:27:30.414Z,45.46
2018-05-18T07:28:30.601Z,45.75
2018-05-18T07:29:30.750Z,46.80
2018-05-18T07:30:31.626Z,48.52
2018-05-18T07:31:31.049Z,49.66
2018-05-18T07:32:32.140Z,48.99
2018-05-18T07:33:39.360Z,51.00
2018-05-18T07:34:31.548Z,52.53
2018-05-18T07:35:31.945Z,55.01
2018-05-18T07:36:31.826Z,51.95
2018-05-18T07:37:31.996Z,50.14
2018-05-18T07:38:32.179Z,50.62
2018-05-18T07:39:32.341Z,48.04
2018-05-18T07:40:32.516Z,49.95
2018-05-18T07:41:39.831Z,48.99
2018-05-18T07:42:33.118Z,52.53
2018-05-18T07:43:32.980Z,49.76
2018-05-18T07:44:33.796Z,51.57
2018-05-18T07:45:33.337Z,49.38
2018-05-18T07:46:33.507Z,46.42
2018-05-18T07:47:33.679Z,50.52
2018-05-18T07:48:33.849Z,50.90
2018-05-18T07:49:34.016Z,49.76
2018-05-18T07:50:34.178Z,48.99
2018-05-18T07:51:34.343Z,48.42
2018-05-18T07:54:17.930Z,48.23
2018-05-18T07:55:18.059Z,49.09
2018-05-18T07:56:18.223Z,51.09
2018-05-18T07:57:18.431Z,52.53
2018-05-18T07:58:18.618Z,52.53
2018-05-18T07:59:18.797Z,51.41
2018-05-18T08:00:18.965Z,53.67
2018-05-18T08:01:20.627Z,54.72
2018-05-18T08:02:19.285Z,52.53
2018-05-18T08:03:19.435Z,52.53
2018-05-18T08:04:19.674Z,48.42
2018-05-18T08:05:19.702Z,52.34
2018-05-18T08:06:19.890Z,50.64
2018-05-18T08:07:20.099Z,48.93
2018-05-18T08:08:22.190Z,50.74
2018-05-18T08:09:28.159Z,50.07
2018-05-18T08:10:20.571Z,52.65
2018-05-18T08:11:20.757Z,49.02
2018-05-18T08:12:21.010Z,49.98
2018-05-18T08:13:21.067Z,47.78
2018-05-18T08:14:21.221Z,46.25
2018-05-18T08:15:21.392Z,45.01
2018-05-18T08:16:21.593Z,44.05
2018-05-18T08:17:29.813Z,45.29
2018-05-18T08:18:22.024Z,48.07
2018-05-18T08:19:22.209Z,46.34
2018-05-18T08:20:22.437Z,41.09
2018-05-18T08:21:22.496Z,43.76
2018-05-18T08:22:22.657Z,42.90
2018-05-18T08:23:22.812Z,42.33
2018-05-18T08:24:23.026Z,40.80
2018-05-18T08:25:23.258Z,42.24
2018-05-18T08:26:23.346Z,40.70
2018-05-18T08:27:23.589Z,43.95
2018-05-18T08:28:23.679Z,42.04
2018-05-18T08:29:23.865Z,41.38
2018-05-18T08:30:24.050Z,43.57
2018-05-18T08:31:24.252Z,42.04
2018-05-18T08:33:57.219Z,44.34
2018-05-18T08:34:57.406Z,41.75
2018-05-18T08:35:57.583Z,45.01
2018-05-18T08:36:57.823Z,43.76
2018-05-18T08:37:57.887Z,46.15
2018-05-18T08:38:58.047Z,46.44
2018-05-18T08:39:58.205Z,46.53
2018-05-18T08:40:58.652Z,47.97
2018-05-18T08:41:58.594Z,48.16
2018-05-18T08:44:32.016Z,45.20
2018-05-18T08:45:32.072Z,46.92
2018-05-18T08:46:32.126Z,46.72
2018-05-18T08:47:39.756Z,47.39
2018-05-18T08:48:32.456Z,47.97
2018-05-18T08:49:32.610Z,48.93
2018-05-18T08:50:32.775Z,50.07
2018-05-18T08:51:33.016Z,46.15
2018-05-18T08:52:33.243Z,47.97
2018-05-18T08:53:33.206Z,46.53
2018-05-18T08:54:33.705Z,46.25
2018-05-18T08:55:33.527Z,48.73
2018-05-18T08:56:43.155Z,46.44
2018-05-18T08:57:33.851Z,46.06
2018-05-18T08:58:34.019Z,46.44
2018-05-18T08:59:35.793Z,47.11
2018-05-18T09:00:34.640Z,48.93
2018-05-18T09:01:34.512Z,49.49
2018-05-18T09:02:34.681Z,48.07
2018-05-18T09:03:37.437Z,48.44
2018-05-18T09:04:34.963Z,48.44
2018-05-18T09:05:35.131Z,47.68
2018-05-18T09:06:35.347Z,47.39
2018-05-18T09:09:08.675Z,49.49
2018-05-18T09:10:11.855Z,49.30
2018-05-18T09:11:08.874Z,50.93
2018-05-18T09:12:09.040Z,50.64
2018-05-18T09:13:10.175Z,49.30
2018-05-18T09:14:09.328Z,50.07
2018-05-18T09:15:09.513Z,49.98
2018-05-18T09:16:09.679Z,50.64
2018-05-18T09:17:09.875Z,47.97
2018-05-18T09:18:10.043Z,47.58
2018-05-18T09:19:10.216Z,49.11
2018-05-18T09:20:18.512Z,42.43
2018-05-18T09:21:10.574Z,49.30
2018-05-18T09:22:10.835Z,47.49
2018-05-18T09:23:18.107Z,46.34
2018-05-18T09:24:11.045Z,45.67
2018-05-18T09:25:11.232Z,44.15
2018-05-18T09:26:11.391Z,43.86
2018-05-18T09:27:11.593Z,45.10
2018-05-18T09:28:11.754Z,45.96
2018-05-18T09:29:11.994Z,44.81
2018-05-18T09:30:20.223Z,46.34
2018-05-18T09:31:12.446Z,46.44
2018-05-18T09:32:12.371Z,48.16
2018-05-18T09:33:12.877Z,47.11
2018-05-18T09:34:13.065Z,48.35
2018-05-18T09:35:12.902Z,47.20
2018-05-18T09:36:13.134Z,46.72
2018-05-18T09:37:13.391Z,48.25
2018-05-18T09:38:13.739Z,49.11
2018-05-18T09:39:13.579Z,47.39
2018-05-18T09:40:13.793Z,48.93
2018-05-18T09:42:54.266Z,48.07
2018-05-18T09:43:54.424Z,49.40
2018-05-18T09:44:54.669Z,48.35
2018-05-18T09:45:54.706Z,49.98
2018-05-18T09:46:54.963Z,51.89
2018-05-18T09:47:55.067Z,54.56
2018-05-18T09:48:55.191Z,56.67
2018-05-18T09:49:55.355Z,55.61
2018-05-18T09:50:55.521Z,54.94
2018-05-18T09:51:55.716Z,54.56
2018-05-18T09:52:55.868Z,56.76
2018-05-18T09:53:56.063Z,57.04
2018-05-18T09:54:56.295Z,54.37
2018-05-18T09:55:56.415Z,55.61
2018-05-18T09:56:56.563Z,57.04
2018-05-18T09:59:28.887Z,54.72
2018-05-18T10:00:29.895Z,48.99
2018-05-18T10:01:29.224Z,44.77
2018-05-18T10:02:29.388Z,41.43
2018-05-18T10:03:36.999Z,38.09
2018-05-18T10:04:29.671Z,36.07
2018-05-18T10:05:30.418Z,34.54
2018-05-18T10:06:29.962Z,30.82
2018-05-18T10:07:30.134Z,33.01
2018-05-18T10:08:30.295Z,31.02
2018-05-18T10:09:30.458Z,32.26
2018-05-18T10:10:30.625Z,37.51
2018-05-18T10:11:30.785Z,37.99
2018-05-18T10:12:31.012Z,37.63
2018-05-18T10:13:31.112Z,37.53
2018-05-18T10:14:31.301Z,37.63
2018-05-18T10:15:31.453Z,41.93
2018-05-18T10:16:31.634Z,45.08
2018-05-18T10:17:31.791Z,50.55
2018-05-18T10:21:29.018Z,46.63
2018-05-18T10:22:29.251Z,52.75
2018-05-18T10:23:29.296Z,57.17
2018-05-18T10:24:29.645Z,62.81
2018-05-18T10:25:36.851Z,53.53
2018-05-18T10:26:37.500Z,57.93
2018-05-18T10:27:29.939Z,59.56
2018-05-18T10:28:30.221Z,55.16
2018-05-18T10:29:30.278Z,62.33
2018-05-18T10:30:30.438Z,56.79
2018-05-18T10:31:30.619Z,62.04
2018-05-18T10:32:32.503Z,55.13
2018-05-18T10:33:30.914Z,53.20
2018-05-18T10:34:31.072Z,52.53
2018-05-18T10:35:31.304Z,49.18
2018-05-18T10:36:31.366Z,47.27
2018-05-18T10:39:15.688Z,46.51
2018-05-18T10:40:14.842Z,46.34
2018-05-18T10:41:15.163Z,51.12
2018-05-18T10:42:15.144Z,52.55
2018-05-18T10:43:23.414Z,60.96
2018-05-18T10:44:15.470Z,53.80
2018-05-18T10:45:15.665Z,52.43
2018-05-18T10:46:23.140Z,52.55
2018-05-18T10:47:16.094Z,51.31
2018-05-18T10:48:16.256Z,53.61
2018-05-18T10:49:16.423Z,50.07
2018-05-18T10:50:16.584Z,57.04
2018-05-18T10:51:16.795Z,54.59
2018-05-18T10:52:16.956Z,59.84
2018-05-18T10:53:17.134Z,63.48
2018-05-18T10:54:17.301Z,63.00
2018-05-18T10:55:17.468Z,65.87
2018-05-18T10:59:00.399Z,61.09
2018-05-18T11:00:01.494Z,66.00
2018-05-18T11:01:00.787Z,62.84
2018-05-18T11:02:00.839Z,62.08
2018-05-18T11:03:01.012Z,66.47
2018-05-18T11:04:01.176Z,71.68
2018-05-18T11:05:01.619Z,73.65
2018-05-18T11:07:33.629Z,63.64
2018-05-18T11:08:33.681Z,73.97
2018-05-18T11:09:33.955Z,79.52
2018-05-18T11:10:41.462Z,82.30
2018-05-18T11:11:34.579Z,84.12
2018-05-18T11:12:34.469Z,83.59
2018-05-18T11:13:34.441Z,85.65
2018-05-18T11:14:34.635Z,84.22
2018-05-18T11:15:34.669Z,76.84
2018-05-18T11:16:34.868Z,82.20
2018-05-18T11:17:35.136Z,81.15
2018-05-18T11:18:35.114Z,86.27
2018-05-18T11:19:35.320Z,83.87
2018-05-18T11:20:35.552Z,87.13
2018-05-18T11:21:43.549Z,86.55
2018-05-18T11:22:35.746Z,82.43
2018-05-18T11:23:35.934Z,87.03
2018-05-18T11:24:36.123Z,87.70
2018-05-18T11:25:36.400Z,88.47
2018-05-18T11:26:45.925Z,78.80
2018-05-18T11:29:09.367Z,93.07
2018-05-18T11:30:09.287Z,93.64
2018-05-18T11:31:09.512Z,90.39
2018-05-18T11:32:17.679Z,88.18
2018-05-18T11:33:09.894Z,88.76
2018-05-18T11:34:10.014Z,85.60
2018-05-18T11:35:10.176Z,93.26
2018-05-18T11:36:10.340Z,88.56
2018-05-18T11:37:10.584Z,88.37
2018-05-18T11:38:10.654Z,86.55
2018-05-18T11:39:10.888Z,87.13
2018-05-18T11:40:11.026Z,85.41
2018-05-18T11:41:11.097Z,88.37
2018-05-18T11:42:11.268Z,90.48
2018-05-18T11:43:11.451Z,90.48
2018-05-18T11:44:11.667Z,90.19
2018-05-18T11:45:12.011Z,90.58
2018-05-18T11:46:12.088Z,87.41
2018-05-18T11:48:45.409Z,93.69
2018-05-18T11:49:45.593Z,93.30
2018-05-18T11:50:45.571Z,91.29
2018-05-18T11:51:52.922Z,91.53
2018-05-18T11:52:45.966Z,86.12
2018-05-18T11:53:46.356Z,89.76
2018-05-18T11:54:46.450Z,87.65
2018-05-18T11:55:48.431Z,75.10
2018-05-18T11:56:46.719Z,94.74
2018-05-18T11:57:46.892Z,90.62
2018-05-18T11:58:47.058Z,93.40
2018-05-18T11:59:47.245Z,94.45
2018-05-18T12:00:47.426Z,95.12
2018-05-18T12:01:47.623Z,93.88
2018-05-18T12:04:20.308Z,93.02
2018-05-18T12:05:20.368Z,95.03
2018-05-18T12:06:20.644Z,91.39
2018-05-18T12:07:20.729Z,92.25
2018-05-18T12:08:21.015Z,95.03
2018-05-18T12:09:21.131Z,91.39
2018-05-18T12:10:21.302Z,91.49
2018-05-18T12:11:21.553Z,98.10
2018-05-18T12:12:21.661Z,95.22
2018-05-18T12:14:54.195Z,88.51
2018-05-18T12:15:54.362Z,91.86
2018-05-18T12:16:54.522Z,93.21
2018-05-18T12:17:56.558Z,94.64
2018-05-18T12:18:54.925Z,93.78
2018-05-18T12:19:55.091Z,93.69
2018-05-18T12:20:56.014Z,94.84
2018-05-18T12:21:57.945Z,92.82
2018-05-18T12:22:58.509Z,87.08
2018-05-18T12:23:55.832Z,92.25
2018-05-18T12:24:56.036Z,93.78
2018-05-18T12:25:56.200Z,95.22
2018-05-18T12:26:56.373Z,94.64
2018-05-18T12:27:56.527Z,77.11
2018-05-18T12:28:56.725Z,91.67
2018-05-18T12:31:39.632Z,91.39
2018-05-18T12:32:39.764Z,94.35
2018-05-18T12:33:39.573Z,92.73
2018-05-18T12:34:39.825Z,95.12
2018-05-18T12:35:39.896Z,95.79
2018-05-18T12:36:40.101Z,93.69
2018-05-18T12:37:40.236Z,92.25
2018-05-18T12:40:12.516Z,89.76
2018-05-18T12:41:12.829Z,94.45
2018-05-18T12:42:12.883Z,93.21
2018-05-18T12:43:13.064Z,94.55
2018-05-18T12:44:13.483Z,95.22
2018-05-18T12:45:13.390Z,96.27
2018-05-18T12:46:13.549Z,98.38
2018-05-18T12:47:13.726Z,96.37
2018-05-18T12:48:13.937Z,94.64
2018-05-18T12:49:14.097Z,95.60
2018-05-18T12:50:14.258Z,90.23
2018-05-18T12:51:14.495Z,95.41
2018-05-18T12:52:14.559Z,95.22
2018-05-18T12:53:14.725Z,95.41
2018-05-18T12:54:14.909Z,95.03
2018-05-18T12:55:22.844Z,93.88
2018-05-18T12:56:15.257Z,90.33
2018-05-18T12:57:15.450Z,92.82
2018-05-18T12:58:15.620Z,93.40
2018-05-18T12:59:15.796Z,91.00
2018-05-18T13:00:23.700Z,95.41
2018-05-18T13:01:16.149Z,95.70
2018-05-18T13:02:16.307Z,94.93
2018-05-18T13:03:16.470Z,90.91
2018-05-18T13:04:16.644Z,85.54
2018-05-18T13:05:16.826Z,91.29
2018-05-18T13:06:16.996Z,94.17
2018-05-18T13:07:17.176Z,92.15
2018-05-18T13:08:24.565Z,92.35
2018-05-18T13:09:17.475Z,95.89
2018-05-18T13:10:17.680Z,96.47
2018-05-18T13:11:18.650Z,92.73
2018-05-18T13:12:17.957Z,89.95
2018-05-18T13:13:18.306Z,91.19
2018-05-18T13:14:18.283Z,95.03
2018-05-18T13:15:18.444Z,94.55
2018-05-18T13:16:18.602Z,90.86
2018-05-18T13:17:18.782Z,81.96
2018-05-18T13:18:26.708Z,87.41
2018-05-18T13:19:19.136Z,88.28
2018-05-18T13:20:19.337Z,86.79
2018-05-18T13:21:21.133Z,89.09
2018-05-18T13:22:19.702Z,90.23
2018-05-18T13:23:19.877Z,86.41
2018-05-18T13:24:20.060Z,87.37
2018-05-18T13:26:52.654Z,92.54
2018-05-18T13:27:52.631Z,94.84
2018-05-18T13:28:52.817Z,92.25
2018-05-18T13:29:52.902Z,92.82
2018-05-18T13:30:53.090Z,92.06
2018-05-18T13:31:53.301Z,92.63
2018-05-18T13:32:53.892Z,93.78
2018-05-18T13:33:53.524Z,92.54
2018-05-18T13:34:54.382Z,93.30
2018-05-18T13:35:53.824Z,93.59
2018-05-18T13:36:54.016Z,90.91
2018-05-18T13:37:54.163Z,90.23
2018-05-18T13:39:02.011Z,89.28
2018-05-18T13:39:54.547Z,91.00
2018-05-18T13:40:54.709Z,94.84
2018-05-18T13:41:54.944Z,91.86
2018-05-18T13:42:55.061Z,94.45
2018-05-18T13:43:55.259Z,93.49
2018-05-18T13:44:55.477Z,94.55
2018-05-18T13:45:55.627Z,92.73
2018-05-18T13:47:03.925Z,93.88
2018-05-18T13:47:55.987Z,92.44
2018-05-18T13:48:56.168Z,94.35
2018-05-18T13:49:56.329Z,92.06
2018-05-18T13:50:56.497Z,91.67
2018-05-18T13:51:56.676Z,94.50
2018-05-18T13:52:57.412Z,95.17
2018-05-18T13:53:56.949Z,93.21
2018-05-18T13:54:57.125Z,93.11
2018-05-18T13:55:57.338Z,92.92
2018-05-18T13:56:57.397Z,96.37
2018-05-18T13:59:39.678Z,94.50